createdAt,value
2017-09-12T00:02:16.619Z,79.00
2017-09-12T00:04:52.024Z,79.10
2017-09-12T00:07:25.191Z,79.50
2017-09-12T00:09:58.447Z,79.60
2017-09-12T00:12:32.696Z,80.10
2017-09-12T00:15:04.627Z,80.30
2017-09-12T00:17:41.085Z,80.30
2017-09-12T00:20:16.266Z,80.30
2017-09-12T00:22:49.059Z,80.50
2017-09-12T00:25:26.035Z,80.40
2017-09-12T00:28:05.497Z,80.40
2017-09-12T00:30:39.785Z,80.10
2017-09-12T00:33:12.705Z,80.30
2017-09-12T00:35:47.141Z,80.50
2017-09-12T00:38:19.408Z,80.20
2017-09-12T00:40:53.488Z,80.30
2017-09-12T00:43:28.644Z,80.20
2017-09-12T00:46:00.185Z,80.30
2017-09-12T00:48:34.724Z,80.10
2017-09-12T00:51:09.274Z,80.20
2017-09-12T00:53:42.709Z,80.20
2017-09-12T00:56:22.760Z,79.70
2017-09-12T00:58:58.044Z,79.70
2017-09-12T01:01:33.445Z,79.50
2017-09-12T01:04:08.524Z,79.90
2017-09-12T01:06:42.919Z,79.80
2017-09-12T01:09:15.796Z,79.60
2017-09-12T01:11:49.089Z,79.60
2017-09-12T01:14:22.766Z,79.50
2017-09-12T01:16:55.797Z,79.50
2017-09-12T01:19:29.482Z,79.60
2017-09-12T01:22:02.679Z,79.50
2017-09-12T01:24:36.804Z,79.70
2017-09-12T01:27:12.474Z,79.80
2017-09-12T01:29:44.629Z,79.90
2017-09-12T01:32:16.978Z,79.70
2017-09-12T01:34:49.269Z,79.80
2017-09-12T01:37:25.942Z,79.90
2017-09-12T01:39:58.584Z,80.20
2017-09-12T01:42:31.536Z,80.20
2017-09-12T01:45:04.507Z,80.20
2017-09-12T01:47:36.190Z,80.20
2017-09-12T01:50:10.539Z,80.50
2017-09-12T01:52:46.656Z,80.40
2017-09-12T01:55:19.750Z,80.30
2017-09-12T01:57:54.127Z,80.70
2017-09-12T02:00:28.569Z,80.70
2017-09-12T02:03:00.827Z,80.80
2017-09-12T02:05:32.949Z,80.90
2017-09-12T02:08:06.634Z,81.00
2017-09-12T02:10:40.252Z,81.00
2017-09-12T02:13:13.199Z,80.90
2017-09-12T02:15:46.892Z,81.60
2017-09-12T02:18:20.645Z,81.00
2017-09-12T02:20:53.451Z,80.80
2017-09-12T02:23:27.728Z,80.80
2017-09-12T02:26:02.541Z,80.80
2017-09-12T02:28:34.515Z,80.70
2017-09-12T02:31:08.852Z,80.50
2017-09-12T02:33:41.390Z,80.60
2017-09-12T02:36:14.744Z,80.90
2017-09-12T02:38:56.500Z,80.90
2017-09-12T02:41:30.987Z,80.90
2017-09-12T02:44:04.677Z,80.70
2017-09-12T02:46:39.987Z,81.30
2017-09-12T02:49:14.281Z,81.20
2017-09-12T02:51:51.355Z,81.20
2017-09-12T02:54:23.194Z,81.10
2017-09-12T02:56:55.357Z,81.50
2017-09-12T02:59:27.440Z,81.70
2017-09-12T03:01:58.895Z,82.00
2017-09-12T03:04:32.827Z,82.30
2017-09-12T03:07:05.409Z,82.20
2017-09-12T03:09:39.210Z,82.60
2017-09-12T03:12:12.148Z,82.70
2017-09-12T03:14:44.054Z,82.90
2017-09-12T03:17:18.045Z,83.00
2017-09-12T03:19:51.121Z,84.00
2017-09-12T03:22:23.304Z,84.50
2017-09-12T03:24:56.472Z,86.50
2017-09-12T03:27:29.485Z,87.60
2017-09-12T03:30:02.579Z,87.60
2017-09-12T03:32:37.497Z,87.90
2017-09-12T03:35:10.427Z,88.20
2017-09-12T03:37:43.375Z,88.30
2017-09-12T03:40:22.295Z,88.40
2017-09-12T03:42:56.209Z,88.70
2017-09-12T03:45:29.443Z,88.20
2017-09-12T03:48:03.712Z,88.10
2017-09-12T03:50:35.715Z,87.50
2017-09-12T03:53:10.038Z,88.00
2017-09-12T03:55:43.778Z,87.60
2017-09-12T03:58:16.612Z,88.20
2017-09-12T04:00:51.293Z,87.80
2017-09-12T04:03:24.293Z,88.10
2017-09-12T04:05:57.305Z,88.00
2017-09-12T04:08:31.191Z,88.00
2017-09-12T04:11:04.294Z,87.40
2017-09-12T04:13:36.533Z,86.70
2017-09-12T04:16:09.332Z,87.00
2017-09-12T04:18:42.320Z,86.80
2017-09-12T04:21:16.290Z,86.80
2017-09-12T04:23:53.873Z,87.50
2017-09-12T04:26:31.912Z,87.10
2017-09-12T04:29:11.525Z,87.10
2017-09-12T04:31:45.300Z,86.70
2017-09-12T04:34:18.667Z,87.10
2017-09-12T07:47:25.886Z,86.20
2017-09-12T07:49:56.191Z,86.10
2017-09-12T07:52:26.626Z,86.40
2017-09-12T07:54:58.382Z,86.60
2017-09-12T07:57:28.637Z,86.50
2017-09-12T07:59:59.278Z,86.40
2017-09-12T08:02:30.686Z,86.40
2017-09-12T08:05:03.518Z,86.40
2017-09-12T08:07:33.921Z,86.20
2017-09-12T08:10:04.522Z,85.70
2017-09-12T08:12:34.867Z,84.50
2017-09-12T08:15:05.315Z,84.40
2017-09-12T08:17:36.248Z,85.80
2017-09-12T08:20:07.988Z,85.60
2017-09-12T08:22:38.601Z,85.80
2017-09-12T08:25:09.118Z,85.60
2017-09-12T08:27:39.639Z,87.10
2017-09-12T08:30:09.926Z,86.10
2017-09-12T08:32:40.223Z,85.40
2017-09-12T08:35:18.556Z,85.00
2017-09-12T08:37:50.099Z,84.00
2017-09-12T08:40:20.664Z,83.90
2017-09-12T08:42:51.393Z,85.00
2017-09-12T08:45:22.619Z,83.40
2017-09-12T08:47:53.062Z,83.40
2017-09-12T08:50:23.950Z,83.40
2017-09-12T08:52:54.961Z,82.20
2017-09-12T08:55:25.342Z,83.20
2017-09-12T08:57:56.294Z,82.40
2017-09-12T09:00:28.116Z,81.60
2017-09-12T09:02:58.567Z,82.60
2017-09-12T09:05:28.843Z,80.10
2017-09-12T09:07:59.076Z,81.80
2017-09-12T09:10:29.383Z,75.50
2017-09-12T09:12:59.835Z,77.10
2017-09-12T09:15:30.468Z,74.40
2017-09-12T09:18:00.945Z,74.60
2017-09-12T09:20:31.557Z,74.20
2017-09-12T09:23:03.042Z,76.50
2017-09-12T09:25:33.790Z,77.10
2017-09-12T09:28:04.223Z,70.90
2017-09-12T09:30:34.668Z,73.00
2017-09-12T09:33:06.180Z,71.20
2017-09-12T09:35:37.329Z,70.30
2017-09-12T09:38:07.903Z,70.10
2017-09-12T09:40:39.183Z,72.30
2017-09-12T09:43:10.203Z,72.00
2017-09-12T09:45:40.855Z,72.00
2017-09-12T09:48:12.260Z,69.30
2017-09-12T09:50:44.280Z,67.60
2017-09-12T09:53:15.274Z,67.50
2017-09-12T09:55:46.639Z,69.00
2017-09-12T09:58:17.246Z,69.00
2017-09-12T10:00:47.603Z,68.90
2017-09-12T10:03:18.578Z,70.10
2017-09-12T10:05:48.929Z,70.10
2017-09-12T10:08:19.435Z,70.50
2017-09-12T10:10:49.891Z,70.20
2017-09-12T10:13:20.253Z,71.00
2017-09-12T10:15:51.673Z,68.70
2017-09-12T10:18:22.149Z,68.70
2017-09-12T10:20:53.154Z,69.80
2017-09-12T10:23:23.357Z,69.90
2017-09-12T10:25:53.618Z,68.40
2017-09-12T10:28:24.018Z,66.40
2017-09-12T10:30:54.355Z,65.30
2017-09-12T10:33:24.779Z,63.50
2017-09-12T10:35:55.465Z,65.80
2017-09-12T10:38:26.099Z,63.40
2017-09-12T10:40:56.475Z,61.40
2017-09-12T10:43:27.775Z,58.30
2017-09-12T10:45:58.278Z,58.20
2017-09-12T10:48:28.701Z,59.40
2017-09-12T10:51:00.769Z,59.80
2017-09-12T10:53:31.542Z,61.40
2017-09-12T10:56:02.238Z,61.90
2017-09-12T10:58:33.250Z,60.40
2017-09-12T11:01:04.434Z,60.10
2017-09-12T11:03:34.675Z,60.10
2017-09-12T11:06:05.902Z,61.30
2017-09-12T11:08:36.750Z,60.90
2017-09-12T11:11:07.938Z,60.70
2017-09-12T11:13:38.531Z,58.70
2017-09-12T11:16:09.429Z,60.30
2017-09-12T11:18:40.799Z,61.80
2017-09-12T11:21:11.210Z,61.70
2017-09-12T11:23:42.210Z,63.30
2017-09-12T11:26:12.557Z,63.30
2017-09-12T11:28:43.727Z,61.40
2017-09-12T11:31:14.124Z,61.40
2017-09-12T11:33:44.391Z,61.30
2017-09-12T11:36:14.736Z,60.30
2017-09-12T11:38:45.625Z,60.50
2017-09-12T11:41:16.692Z,58.90
2017-09-12T11:43:47.440Z,58.90
2017-09-12T11:46:18.054Z,58.80
2017-09-12T11:48:48.414Z,59.60
2017-09-12T11:51:18.653Z,60.10
2017-09-12T11:53:49.578Z,57.90
2017-09-12T11:56:19.835Z,60.70
2017-09-12T11:58:50.950Z,62.60
2017-09-12T12:01:21.589Z,62.60
2017-09-12T12:03:52.044Z,63.50
2017-09-12T12:06:23.049Z,67.10
2017-09-12T12:08:54.331Z,71.50
2017-09-12T12:11:24.908Z,71.60
2017-09-12T12:13:55.294Z,71.70
2017-09-12T12:16:25.634Z,70.90
2017-09-12T12:18:55.989Z,70.40
2017-09-12T12:21:26.687Z,72.20
2017-09-12T12:23:57.065Z,71.40
2017-09-12T12:26:27.639Z,71.40
2017-09-12T12:28:58.969Z,71.60
2017-09-12T12:31:29.577Z,70.20
2017-09-12T12:33:59.981Z,70.70
2017-09-12T12:36:30.553Z,70.90
2017-09-12T12:39:01.050Z,71.00
2017-09-12T12:41:32.308Z,67.80
2017-09-12T12:44:02.704Z,67.80
2017-09-12T12:46:33.743Z,68.10
2017-09-12T12:49:05.445Z,70.60
2017-09-12T12:51:36.996Z,70.80
2017-09-12T12:54:07.434Z,70.50
2017-09-12T12:56:38.585Z,71.50
2017-09-12T12:59:09.567Z,72.00
2017-09-12T13:01:43.064Z,72.60
2017-09-12T13:04:14.859Z,73.60
2017-09-12T13:06:46.214Z,74.00
2017-09-12T13:09:16.653Z,72.70
2017-09-12T13:11:46.874Z,72.90
2017-09-12T13:14:17.193Z,72.70
2017-09-12T13:16:47.444Z,71.50
2017-09-12T13:19:17.777Z,70.90
2017-09-12T13:21:48.029Z,70.30
2017-09-12T13:24:18.929Z,70.40
2017-09-12T13:26:49.391Z,69.70
2017-09-12T13:29:20.595Z,71.30
2017-09-12T13:31:51.619Z,71.30
2017-09-12T13:34:22.419Z,72.00
2017-09-12T13:36:53.783Z,72.30
2017-09-12T13:39:25.076Z,76.40
2017-09-12T13:41:55.787Z,76.40
2017-09-12T13:44:26.098Z,76.70
2017-09-12T13:46:56.514Z,78.70
2017-09-12T13:49:26.930Z,80.10
2017-09-12T13:51:57.305Z,78.90
2017-09-12T13:54:27.527Z,80.20
2017-09-12T13:56:58.156Z,79.60
2017-09-12T13:59:28.543Z,80.20
2017-09-12T14:01:59.201Z,79.10
2017-09-12T14:04:29.468Z,79.00
2017-09-12T14:07:02.296Z,79.60
2017-09-12T14:09:32.617Z,79.80
2017-09-12T14:12:03.844Z,81.10
2017-09-12T14:14:35.484Z,80.90
2017-09-12T14:17:06.024Z,80.90
2017-09-12T14:19:36.305Z,81.30
2017-09-12T14:22:06.618Z,82.20
2017-09-12T14:24:37.187Z,81.60
2017-09-12T14:27:07.485Z,81.00
2017-09-12T14:29:37.869Z,80.50
2017-09-12T14:32:08.480Z,79.40
2017-09-12T14:34:39.467Z,78.40
2017-09-12T14:37:10.196Z,78.20
2017-09-12T14:39:40.704Z,75.40
2017-09-12T14:42:11.558Z,76.40
2017-09-12T14:44:41.979Z,74.60
2017-09-12T14:47:12.458Z,76.10
2017-09-12T14:49:42.683Z,75.20
2017-09-12T14:52:13.868Z,73.80
2017-09-12T14:54:45.535Z,73.80
2017-09-12T14:57:16.126Z,73.80
2017-09-12T14:59:47.114Z,74.80
2017-09-12T15:02:17.549Z,72.10
2017-09-12T15:04:47.825Z,73.60
2017-09-12T15:07:18.147Z,75.10
2017-09-12T15:09:48.710Z,73.80
2017-09-12T15:12:19.057Z,74.80
2017-09-12T15:14:50.705Z,73.90
2017-09-12T15:17:22.780Z,73.50
2017-09-12T15:19:53.050Z,73.40
2017-09-12T15:22:23.638Z,74.80
2017-09-12T15:24:54.835Z,75.20
2017-09-12T15:27:27.322Z,75.60
2017-09-12T15:29:59.735Z,75.60
2017-09-12T15:32:30.093Z,76.60
2017-09-12T15:35:01.542Z,76.60
2017-09-12T15:37:35.195Z,76.00
2017-09-12T15:40:06.348Z,75.90
2017-09-12T15:42:37.129Z,75.80
2017-09-12T15:45:09.934Z,76.00
2017-09-12T15:47:41.867Z,78.10
2017-09-12T15:50:12.224Z,77.10
2017-09-12T15:52:42.915Z,75.40
2017-09-12T15:55:13.877Z,73.90
2017-09-12T15:57:46.331Z,73.70
2017-09-12T16:00:17.777Z,69.40
2017-09-12T16:02:49.458Z,69.40
2017-09-12T16:05:19.870Z,68.40
2017-09-12T16:07:51.912Z,66.20
2017-09-12T16:10:22.202Z,66.30
2017-09-12T16:12:53.522Z,66.70
2017-09-12T16:15:24.452Z,66.60
2017-09-12T16:17:54.797Z,66.10
2017-09-12T16:20:25.246Z,67.70
2017-09-12T16:22:57.668Z,67.60
2017-09-12T16:25:28.237Z,67.50
2017-09-12T16:28:15.370Z,67.30
2017-09-12T16:30:46.907Z,67.90
2017-09-12T16:33:17.575Z,67.60
2017-09-12T16:35:48.246Z,68.80
2017-09-12T16:38:19.925Z,72.20
2017-09-12T16:40:51.978Z,72.50
2017-09-12T16:43:22.394Z,72.50
2017-09-12T16:45:53.705Z,73.00
2017-09-12T16:48:24.730Z,72.90
2017-09-12T16:50:55.161Z,73.60
2017-09-12T16:53:27.008Z,73.00
2017-09-12T16:55:57.334Z,72.80
2017-09-12T16:58:27.714Z,73.50
2017-09-12T17:00:58.291Z,72.90
2017-09-12T17:03:28.667Z,72.20
2017-09-12T17:06:00.242Z,72.90
2017-09-12T17:08:30.841Z,72.30
2017-09-12T17:11:01.255Z,72.00
2017-09-12T17:13:32.639Z,72.10
2017-09-12T17:16:03.395Z,72.40
2017-09-12T17:18:33.840Z,72.30
2017-09-12T17:21:04.317Z,71.90
2017-09-12T17:23:35.668Z,71.70
2017-09-12T17:26:06.204Z,72.20
2017-09-12T17:28:37.479Z,72.10
2017-09-12T17:31:08.052Z,71.90
2017-09-12T17:36:11.590Z,71.40
2017-09-12T17:38:42.759Z,72.70
2017-09-12T17:41:13.284Z,71.90
2017-09-12T17:43:44.314Z,72.70
2017-09-12T17:46:14.912Z,72.70
2017-09-12T17:48:46.130Z,73.20
2017-09-12T17:51:16.814Z,73.10
2017-09-12T17:53:48.422Z,73.20
2017-09-12T17:56:18.899Z,73.90
2017-09-12T17:58:49.318Z,73.80
2017-09-12T18:01:19.679Z,74.20
2017-09-12T18:03:51.586Z,74.40
2017-09-12T18:06:22.019Z,75.00
2017-09-12T18:08:52.904Z,75.20
2017-09-12T18:11:23.382Z,75.50
2017-09-12T18:13:53.928Z,76.40
2017-09-12T18:16:24.491Z,76.60
2017-09-12T18:18:55.236Z,76.80
2017-09-12T18:21:34.812Z,76.50
2017-09-12T18:24:38.217Z,76.70
2017-09-12T18:27:12.867Z,76.70
2017-09-12T18:29:47.742Z,76.80
2017-09-12T18:32:23.050Z,77.10
2017-09-12T18:37:35.579Z,79.10
2017-09-12T18:40:13.056Z,80.00
2017-09-12T18:42:50.251Z,79.70
2017-09-12T18:45:25.273Z,81.20
2017-09-12T18:48:02.051Z,81.20
2017-09-12T18:50:37.660Z,81.90
2017-09-12T18:53:13.134Z,82.20
2017-09-12T18:55:50.757Z,82.60
2017-09-12T18:58:27.388Z,82.60
2017-09-12T19:01:03.454Z,81.60
2017-09-12T19:03:40.308Z,80.50
2017-09-12T19:06:15.575Z,81.10
2017-09-12T19:08:49.015Z,81.60
2017-09-12T19:11:23.882Z,81.20
2017-09-12T19:14:01.219Z,82.00
2017-09-12T19:16:34.677Z,82.00
2017-09-12T19:19:09.436Z,82.60
2017-09-12T19:21:44.422Z,81.80
2017-09-12T19:24:22.024Z,81.80
2017-09-12T19:26:59.425Z,81.80
2017-09-12T19:29:33.198Z,81.60
2017-09-12T19:32:07.543Z,81.30
2017-09-12T19:34:42.326Z,81.20
2017-09-12T19:37:16.881Z,81.40
2017-09-12T19:39:52.025Z,81.30
2017-09-12T19:42:26.964Z,80.70
2017-09-12T19:45:04.051Z,80.60
2017-09-12T19:47:50.196Z,80.30
2017-09-12T19:50:27.648Z,80.10
2017-09-12T19:53:03.306Z,80.90
2017-09-12T19:55:38.523Z,81.00
2017-09-12T19:58:15.231Z,81.20
2017-09-12T20:00:51.514Z,80.80
2017-09-12T20:03:27.671Z,80.80
2017-09-12T20:06:02.469Z,80.10
2017-09-12T20:08:39.976Z,79.90
2017-09-12T20:11:16.102Z,79.80
2017-09-12T20:13:52.940Z,79.30
2017-09-12T20:16:29.039Z,79.20
2017-09-12T20:19:07.489Z,80.10
2017-09-12T20:21:44.180Z,79.10
2017-09-12T20:24:24.716Z,79.40
2017-09-12T20:27:01.393Z,79.20
2017-09-12T20:29:32.709Z,78.90
2017-09-12T20:32:04.724Z,79.00
2017-09-12T20:34:41.942Z,78.80
2017-09-12T20:37:13.061Z,78.60
2017-09-12T20:39:44.235Z,79.40
2017-09-12T20:42:15.733Z,79.80
2017-09-12T20:44:47.019Z,80.30
2017-09-12T20:47:17.341Z,81.00
2017-09-12T20:49:57.529Z,81.50
2017-09-12T20:52:30.813Z,82.20
2017-09-12T20:55:01.599Z,82.20
2017-09-12T20:57:32.451Z,82.60
2017-09-12T21:00:04.050Z,82.40
2017-09-12T21:02:34.972Z,82.40
2017-09-12T21:05:05.712Z,82.80
2017-09-12T21:07:36.708Z,82.40
2017-09-12T21:10:08.831Z,82.80
2017-09-12T21:12:40.080Z,82.70
2017-09-12T21:15:11.395Z,83.00
2017-09-12T21:17:41.997Z,83.60
2017-09-12T21:20:12.543Z,83.00
2017-09-12T21:22:43.935Z,83.20
2017-09-12T21:25:15.077Z,83.10
2017-09-12T21:27:45.503Z,83.50
2017-09-12T21:30:16.841Z,84.10
2017-09-12T21:32:48.154Z,84.80
2017-09-12T21:35:19.205Z,85.10
2017-09-12T21:37:50.239Z,85.20
2017-09-12T21:40:22.533Z,85.70
2017-09-12T21:42:53.405Z,85.70
2017-09-12T21:45:25.661Z,85.60
2017-09-12T21:47:56.888Z,86.20
2017-09-12T21:50:39.460Z,85.60
2017-09-12T21:53:29.353Z,85.70
2017-09-12T21:56:28.137Z,86.20
2017-09-12T21:59:20.980Z,86.10
2017-09-12T22:02:04.215Z,86.40
2017-09-12T22:04:48.184Z,86.70
2017-09-12T22:07:28.274Z,86.60
2017-09-12T22:10:18.381Z,86.50
2017-09-12T22:13:01.555Z,86.80
2017-09-12T22:15:32.921Z,86.80
2017-09-12T22:18:04.023Z,87.00
2017-09-12T22:20:35.238Z,87.60
2017-09-12T22:23:05.935Z,87.60
2017-09-12T22:25:37.883Z,87.70
2017-09-12T22:28:09.403Z,87.70
2017-09-12T22:30:40.781Z,87.90
2017-09-12T22:33:13.085Z,87.70
2017-09-12T22:35:44.715Z,87.80
2017-09-12T22:38:15.063Z,87.70
2017-09-12T22:40:46.227Z,87.90
2017-09-12T22:43:18.161Z,88.10
2017-09-12T22:45:50.511Z,88.20
2017-09-12T22:48:21.557Z,88.20
2017-09-12T22:50:54.521Z,88.20
2017-09-12T22:53:25.897Z,88.10
2017-09-12T22:55:57.239Z,88.10
2017-09-12T22:58:28.473Z,88.20
2017-09-12T23:01:00.168Z,88.30
2017-09-12T23:03:31.619Z,88.20
2017-09-12T23:06:03.388Z,89.00
2017-09-12T23:08:34.621Z,88.00
2017-09-12T23:11:05.685Z,88.30
2017-09-12T23:13:36.688Z,88.30
2017-09-12T23:16:07.900Z,88.40
2017-09-12T23:18:39.004Z,88.50
2017-09-12T23:21:10.266Z,88.50
2017-09-12T23:23:42.240Z,88.80
2017-09-12T23:26:13.130Z,88.70
2017-09-12T23:28:45.184Z,88.70
2017-09-12T23:31:16.535Z,88.70
2017-09-12T23:33:47.700Z,88.60
2017-09-12T23:36:18.687Z,88.70
2017-09-12T23:38:49.600Z,88.60
2017-09-12T23:41:20.563Z,88.50
2017-09-12T23:43:52.552Z,88.50
2017-09-12T23:46:23.336Z,88.00
2017-09-12T23:48:54.110Z,88.30
2017-09-12T23:51:26.246Z,88.10
2017-09-12T23:53:58.098Z,88.20
2017-09-12T23:56:29.226Z,88.20
2017-09-12T23:59:00.621Z,88.40
